Time;durP1;ratioP1;P1;durP2;ratioP2;P2;SDS_P1;SDS_P2;PMS_P1;PMS_P2;Temp;Humidity;BMP_temperature;BMP_pressure;BME280_temperature;BME280_humidity;BME280_pressure;Samples;Min_cycle;Max_cycle;Signal;HPM_P1;HPM_P2
2021/01/10 00:00:04;;;;;;;38.47;27.27;;;3.30;99.90;;;;;;5060459;28;20562;-67
2021/01/10 00:02:31;;;;;;;35.60;27.03;;;3.20;99.90;;;;;;5060535;28;20543;-68
2021/01/10 00:04:58;;;;;;;36.63;28.40;;;3.20;99.90;;;;;;5060528;28;20485;-67
2021/01/10 00:07:25;;;;;;;30.73;24.13;;;3.30;99.90;;;;;;5060795;28;20526;-67
2021/01/10 00:09:53;;;;;;;34.47;26.00;;;3.20;99.90;;;;;;5060487;28;21368;-67
2021/01/10 00:12:21;;;;;;;34.03;26.57;;;3.20;99.90;;;;;;5060255;28;20875;-67
2021/01/10 00:14:48;;;;;;;31.43;24.10;;;3.20;99.90;;;;;;5060171;28;20668;-67
2021/01/10 00:17:15;;;;;;;28.87;23.10;;;3.20;99.90;;;;;;5060177;28;20516;-67
2021/01/10 00:19:44;;;;;;;30.73;25.17;;;3.20;99.90;;;;;;5059945;28;21146;-67
2021/01/10 00:22:12;;;;;;;28.43;23.33;;;3.20;99.90;;;;;;5060017;28;20447;-67
2021/01/10 00:24:40;;;;;;;33.70;27.10;;;3.30;99.90;;;;;;5060081;28;20842;-68
2021/01/10 00:27:08;;;;;;;30.70;23.30;;;3.30;99.90;;;;;;5060142;28;21068;-68
2021/01/10 00:29:36;;;;;;;28.53;23.83;;;3.30;99.90;;;;;;5059889;28;20554;-67
2021/01/10 00:32:04;;;;;;;36.00;24.43;;;3.30;99.90;;;;;;5059794;28;20482;-67
2021/01/10 00:34:31;;;;;;;30.20;25.00;;;3.30;99.90;;;;;;5059777;28;20483;-67
2021/01/10 00:36:58;;;;;;;37.33;25.30;;;3.30;99.90;;;;;;5060012;28;20506;-68
2021/01/10 00:39:25;;;;;;;35.53;23.50;;;3.30;99.90;;;;;;5059239;28;20474;-67
2021/01/10 00:41:52;;;;;;;32.93;24.57;;;3.20;99.90;;;;;;5059781;28;20625;-67
2021/01/10 00:44:19;;;;;;;30.93;24.13;;;3.10;99.90;;;;;;5059693;28;21069;-67
2021/01/10 00:46:45;;;;;;;36.07;24.50;;;3.20;99.90;;;;;;5059656;28;20449;-68
2021/01/10 00:49:12;;;;;;;32.53;25.40;;;3.10;99.90;;;;;;5059952;28;20952;-67
2021/01/10 00:51:39;;;;;;;32.87;23.43;;;3.10;99.90;;;;;;5059482;28;20538;-67
2021/01/10 00:54:07;;;;;;;38.20;25.97;;;3.10;99.90;;;;;;5059375;28;20574;-67
2021/01/10 00:56:33;;;;;;;33.93;24.00;;;3.20;99.90;;;;;;5059632;28;20977;-67
2021/01/10 00:59:00;;;;;;;32.63;23.77;;;3.20;99.90;;;;;;5059551;28;20443;-67
2021/01/10 01:01:27;;;;;;;33.83;25.50;;;3.20;99.90;;;;;;5059578;28;20458;-67
2021/01/10 01:03:54;;;;;;;32.10;23.27;;;3.20;99.90;;;;;;5059484;28;21023;-67
2021/01/10 01:06:20;;;;;;;30.60;23.23;;;3.20;99.90;;;;;;5059439;28;20451;-67
2021/01/10 01:08:47;;;;;;;33.57;24.30;;;3.20;99.90;;;;;;5059402;28;20479;-67
2021/01/10 01:11:15;;;;;;;30.53;22.27;;;3.20;99.90;;;;;;5059244;28;21364;-67
2021/01/10 01:13:41;;;;;;;32.70;24.03;;;3.20;99.90;;;;;;5059514;28;20853;-67
2021/01/10 01:16:08;;;;;;;31.80;25.30;;;3.20;99.90;;;;;;5059629;28;20902;-67
2021/01/10 01:18:36;;;;;;;30.40;23.03;;;3.30;99.90;;;;;;5059451;28;20451;-67
2021/01/10 01:21:03;;;;;;;36.47;24.70;;;3.30;99.90;;;;;;5059337;28;20443;-67
2021/01/10 01:23:29;;;;;;;30.80;23.00;;;3.30;99.90;;;;;;5059499;28;20767;-67
2021/01/10 01:25:56;;;;;;;32.63;24.47;;;3.30;99.90;;;;;;5059530;28;20545;-67
2021/01/10 01:28:23;;;;;;;28.60;22.83;;;3.30;99.90;;;;;;5059340;28;20447;-68
2021/01/10 01:30:50;;;;;;;32.50;23.83;;;3.30;99.90;;;;;;5059177;28;20474;-67
2021/01/10 01:33:17;;;;;;;29.30;25.57;;;3.30;99.90;;;;;;5059246;28;20590;-68
2021/01/10 01:35:44;;;;;;;31.30;23.90;;;3.30;99.90;;;;;;5059281;28;20447;-67
2021/01/10 01:38:10;;;;;;;31.93;24.80;;;3.30;99.90;;;;;;5060089;28;20898;-67
2021/01/10 01:40:37;;;;;;;28.57;22.27;;;3.20;99.90;;;;;;5059944;28;20483;-67
2021/01/10 01:43:07;;;;;;;33.20;21.93;;;3.30;99.90;;;;;;5059253;28;20896;-67
2021/01/10 01:45:34;;;;;;;37.80;27.10;;;3.30;99.90;;;;;;5059124;28;20459;-68
2021/01/10 01:48:04;;;;;;;34.60;25.13;;;3.30;99.90;;;;;;5059172;28;20486;-68
2021/01/10 01:50:31;;;;;;;29.10;23.13;;;3.20;99.90;;;;;;5061455;28;20446;-67
2021/01/10 01:52:57;;;;;;;36.90;26.27;;;3.20;99.90;;;;;;5063224;28;20558;-67
2021/01/10 01:55:24;;;;;;;31.07;23.60;;;3.30;99.90;;;;;;5063036;28;20826;-67
2021/01/10 01:57:51;;;;;;;30.20;24.20;;;3.20;99.90;;;;;;5062885;28;20480;-67
2021/01/10 02:00:18;;;;;;;30.70;23.40;;;3.20;99.90;;;;;;5062654;28;20483;-67
2021/01/10 02:02:46;;;;;;;38.07;26.20;;;3.10;99.90;;;;;;5062830;28;20478;-68
2021/01/10 02:05:18;;;;;;;31.17;24.80;;;3.10;99.90;;;;;;5062695;28;20521;-67
2021/01/10 02:07:52;;;;;;;35.90;24.50;;;2.90;99.90;;;;;;5062953;28;20593;-67
2021/01/10 02:10:24;;;;;;;35.30;24.23;;;2.90;99.90;;;;;;5062654;28;20446;-67
2021/01/10 02:12:52;;;;;;;35.17;25.77;;;2.80;99.90;;;;;;5062565;28;21013;-66
2021/01/10 02:15:22;;;;;;;30.00;24.17;;;2.70;99.90;;;;;;5062595;28;20884;-66
2021/01/10 02:17:52;;;;;;;33.80;24.70;;;2.70;99.90;;;;;;5062599;28;20494;-67
2021/01/10 02:20:26;;;;;;;34.07;26.50;;;2.70;99.90;;;;;;5062563;28;21068;-67
2021/01/10 02:23:00;;;;;;;40.83;26.40;;;2.60;99.90;;;;;;5062438;28;20538;-67
2021/01/10 02:25:28;;;;;;;36.00;25.73;;;2.50;99.90;;;;;;5062467;28;20467;-67
2021/01/10 02:27:55;;;;;;;39.53;26.87;;;2.50;99.90;;;;;;5062251;28;20867;-67
2021/01/10 02:30:23;;;;;;;34.90;25.40;;;2.50;99.90;;;;;;5062055;28;20975;-67
2021/01/10 02:32:56;;;;;;;32.33;25.20;;;2.50;99.90;;;;;;5062172;28;20989;-67
2021/01/10 02:35:23;;;;;;;41.73;26.03;;;2.60;99.90;;;;;;5062072;28;20723;-68
2021/01/10 02:38:02;;;;;;;34.17;27.17;;;2.50;99.90;;;;;;5062270;28;20538;-67
2021/01/10 02:40:36;;;;;;;42.17;28.33;;;2.50;99.90;;;;;;5062019;28;21055;-68
2021/01/10 02:43:11;;;;;;;37.00;25.47;;;2.60;99.90;;;;;;5062218;28;20455;-68
2021/01/10 02:45:41;;;;;;;34.20;23.77;;;2.70;99.90;;;;;;5062151;28;20474;-67
2021/01/10 02:48:08;;;;;;;32.97;24.77;;;2.70;99.90;;;;;;5061907;28;20455;-67
2021/01/10 02:50:35;;;;;;;36.50;26.47;;;2.70;99.90;;;;;;5061926;28;20483;-67
2021/01/10 02:53:03;;;;;;;33.23;23.50;;;2.70;99.90;;;;;;5061946;28;21015;-67
2021/01/10 02:55:30;;;;;;;37.30;26.00;;;2.80;99.90;;;;;;5061841;28;20498;-67
2021/01/10 02:58:01;;;;;;;33.37;24.53;;;2.80;99.90;;;;;;5061839;28;20550;-69
2021/01/10 03:00:30;;;;;;;32.27;23.70;;;2.70;99.90;;;;;;5061561;28;20498;-67
2021/01/10 03:02:58;;;;;;;34.73;24.30;;;2.80;99.90;;;;;;5061097;28;20566;-67
2021/01/10 03:05:27;;;;;;;31.43;24.60;;;2.80;99.90;;;;;;5061695;28;20487;-67
2021/01/10 03:07:55;;;;;;;30.90;22.37;;;2.80;99.90;;;;;;5061758;28;20447;-67
2021/01/10 03:10:22;;;;;;;27.77;23.00;;;2.80;99.90;;;;;;5061631;28;20447;-67
2021/01/10 03:12:49;;;;;;;32.50;21.53;;;2.80;99.90;;;;;;5061680;28;20451;-67
2021/01/10 03:15:17;;;;;;;36.67;25.37;;;2.70;99.90;;;;;;5061448;28;20586;-68
2021/01/10 03:17:45;;;;;;;32.77;24.13;;;2.70;99.90;;;;;;5061551;28;20504;-66
2021/01/10 03:20:13;;;;;;;31.40;22.87;;;2.80;99.90;;;;;;5061290;28;20534;-67
2021/01/10 03:22:40;;;;;;;29.80;25.03;;;2.80;99.90;;;;;;5061517;28;20885;-68
2021/01/10 03:25:09;;;;;;;31.57;22.80;;;2.70;99.90;;;;;;5061324;28;20459;-67
2021/01/10 03:27:36;;;;;;;34.70;23.67;;;2.60;99.90;;;;;;5061285;28;20870;-67
2021/01/10 03:30:04;;;;;;;38.13;24.70;;;2.50;99.90;;;;;;5061092;28;20444;-66
2021/01/10 03:32:32;;;;;;;32.23;24.10;;;2.40;99.90;;;;;;5061209;28;20446;-67
2021/01/10 03:34:58;;;;;;;30.73;24.57;;;2.40;99.90;;;;;;5060902;28;20494;-67
2021/01/10 03:37:24;;;;;;;37.77;24.80;;;2.40;99.90;;;;;;5061302;28;20447;-67
2021/01/10 03:39:51;;;;;;;32.80;24.83;;;2.40;99.90;;;;;;5060901;28;20451;-66
2021/01/10 03:42:17;;;;;;;37.50;24.97;;;2.40;99.90;;;;;;5060970;28;20443;-67
2021/01/10 03:44:44;;;;;;;32.47;25.30;;;2.50;99.90;;;;;;5061018;28;20803;-67
2021/01/10 03:47:10;;;;;;;36.90;24.80;;;2.50;99.90;;;;;;5061260;28;20443;-67
2021/01/10 03:49:37;;;;;;;34.10;24.70;;;2.50;99.90;;;;;;5061057;28;20807;-66
2021/01/10 03:52:03;;;;;;;35.23;24.97;;;2.50;99.90;;;;;;5061436;28;20525;-67
2021/01/10 03:54:29;;;;;;;31.13;23.83;;;2.50;99.90;;;;;;5060808;28;20891;-67
2021/01/10 03:56:56;;;;;;;37.67;24.90;;;2.50;99.90;;;;;;5061109;28;20840;-67
2021/01/10 03:59:22;;;;;;;34.87;27.07;;;2.50;99.90;;;;;;5060796;28;20474;-67
2021/01/10 04:01:48;;;;;;;34.70;23.90;;;2.40;99.90;;;;;;5060591;28;21068;-67
2021/01/10 04:04:14;;;;;;;35.67;25.13;;;2.50;99.90;;;;;;5060578;28;20482;-66
2021/01/10 04:06:41;;;;;;;41.03;28.27;;;2.50;99.90;;;;;;5060753;28;20450;-67
2021/01/10 04:09:08;;;;;;;39.20;27.87;;;2.50;99.90;;;;;;5060546;28;20885;-67
2021/01/10 04:11:34;;;;;;;44.33;28.43;;;2.50;99.90;;;;;;5060308;28;20452;-67
2021/01/10 04:14:00;;;;;;;41.90;29.13;;;2.40;99.90;;;;;;5060234;28;20483;-67
2021/01/10 04:16:26;;;;;;;40.23;28.20;;;2.40;99.90;;;;;;5060442;28;20455;-67
2021/01/10 04:18:53;;;;;;;40.50;27.93;;;2.50;99.90;;;;;;5060497;28;20443;-69
2021/01/10 04:21:19;;;;;;;38.73;27.53;;;2.50;99.90;;;;;;5060205;28;21035;-68
2021/01/10 04:23:46;;;;;;;42.13;28.00;;;2.50;99.90;;;;;;5060216;28;20524;-68
2021/01/10 04:26:12;;;;;;;46.03;28.90;;;2.50;99.90;;;;;;5060142;28;20891;-67
2021/01/10 04:28:39;;;;;;;42.17;29.37;;;2.50;99.90;;;;;;5060113;28;20439;-67
2021/01/10 04:31:05;;;;;;;37.83;26.20;;;2.50;99.90;;;;;;5059800;28;20458;-68
2021/01/10 04:33:32;;;;;;;41.80;27.93;;;2.50;99.90;;;;;;5059967;28;20833;-67
2021/01/10 04:36:00;;;;;;;47.40;28.00;;;2.50;99.90;;;;;;5059966;28;20779;-66
2021/01/10 04:38:27;;;;;;;41.27;31.20;;;2.50;99.90;;;;;;5060138;28;20447;-67
2021/01/10 04:40:54;;;;;;;49.00;29.07;;;2.40;99.90;;;;;;5059771;28;20450;-67
2021/01/10 04:43:21;;;;;;;41.73;30.57;;;2.40;99.90;;;;;;5059755;28;20447;-67
2021/01/10 04:45:47;;;;;;;48.87;29.47;;;2.40;99.90;;;;;;5059892;28;20458;-67
2021/01/10 04:48:13;;;;;;;40.30;28.57;;;2.30;99.90;;;;;;5059892;28;20509;-67
2021/01/10 04:50:40;;;;;;;48.13;31.50;;;2.30;99.90;;;;;;5059631;28;20770;-67
2021/01/10 04:53:09;;;;;;;44.30;31.47;;;2.40;99.90;;;;;;5059710;28;20443;-67
2021/01/10 04:55:38;;;;;;;43.10;30.37;;;2.40;99.90;;;;;;5059563;28;20474;-67
2021/01/10 04:58:06;;;;;;;42.07;27.97;;;2.40;99.90;;;;;;5059934;28;20443;-67
2021/01/10 05:00:34;;;;;;;45.97;31.17;;;2.40;99.90;;;;;;5059567;28;20447;-67
2021/01/10 05:03:11;;;;;;;45.83;28.63;;;2.40;99.90;;;;;;5059692;28;20475;-66
2021/01/10 05:05:38;;;;;;;48.80;29.73;;;2.30;99.90;;;;;;5060359;28;20814;-67
2021/01/10 05:08:06;;;;;;;43.47;27.17;;;2.20;99.90;;;;;;5059506;28;20443;-67
2021/01/10 05:10:32;;;;;;;47.13;27.90;;;2.20;99.90;;;;;;5059360;28;20439;-67
2021/01/10 05:12:58;;;;;;;41.53;28.73;;;2.20;99.90;;;;;;5059410;28;20770;-67
2021/01/10 05:15:26;;;;;;;48.60;31.00;;;2.20;99.90;;;;;;5059243;28;20490;-68
2021/01/10 05:17:54;;;;;;;49.83;29.20;;;2.10;99.90;;;;;;5059391;28;20528;-67
2021/01/10 05:20:20;;;;;;;45.30;28.80;;;2.00;99.90;;;;;;5059314;28;20447;-67
2021/01/10 05:22:50;;;;;;;52.63;28.87;;;2.00;99.90;;;;;;5059664;28;20462;-67
2021/01/10 05:25:16;;;;;;;41.50;29.40;;;2.00;99.90;;;;;;5058928;28;20518;-66
2021/01/10 05:27:46;;;;;;;40.27;28.57;;;1.90;99.90;;;;;;5059607;28;20454;-66
2021/01/10 05:30:16;;;;;;;43.03;27.30;;;1.80;99.90;;;;;;5060723;28;20447;-67
2021/01/10 05:32:43;;;;;;;49.67;30.10;;;1.80;99.90;;;;;;5060971;28;20452;-68
2021/01/10 05:35:10;;;;;;;42.43;28.97;;;1.70;99.90;;;;;;5060793;28;20482;-68
2021/01/10 05:37:37;;;;;;;45.20;28.70;;;1.60;99.90;;;;;;5061445;28;20467;-68
2021/01/10 05:40:07;;;;;;;51.20;30.87;;;1.60;99.90;;;;;;5061094;28;20448;-67
2021/01/10 05:42:35;;;;;;;60.00;32.40;;;1.50;99.90;;;;;;5061365;28;20525;-68
2021/01/10 05:45:02;;;;;;;47.70;32.80;;;1.50;99.90;;;;;;5061456;28;20966;-67
2021/01/10 05:47:39;;;;;;;48.43;31.43;;;1.50;99.90;;;;;;5059424;28;20536;-68
2021/01/10 05:50:15;;;;;;;50.03;31.47;;;1.50;99.90;;;;;;5058891;28;20496;-67
2021/01/10 05:52:43;;;;;;;50.17;31.07;;;1.40;99.90;;;;;;5059248;28;20794;-66
2021/01/10 05:55:10;;;;;;;50.73;30.20;;;1.40;99.90;;;;;;5059860;28;20569;-67
2021/01/10 05:57:37;;;;;;;56.90;33.53;;;1.40;99.90;;;;;;5060581;28;20447;-66
2021/01/10 06:00:05;;;;;;;53.80;35.20;;;1.40;99.90;;;;;;5060072;28;20454;-66
2021/01/10 06:02:32;;;;;;;54.50;32.50;;;1.40;99.90;;;;;;5059363;28;20596;-69
2021/01/10 06:05:10;;;;;;;51.27;33.50;;;1.40;99.90;;;;;;5058578;28;20936;-68
2021/01/10 06:07:37;;;;;;;48.83;31.90;;;1.40;99.90;;;;;;5059148;28;21245;-68
2021/01/10 06:10:06;;;;;;;51.93;31.83;;;1.50;99.90;;;;;;5058765;28;20521;-68
2021/01/10 06:12:33;;;;;;;58.13;33.50;;;1.50;99.90;;;;;;5059041;28;20446;-68
2021/01/10 06:15:13;;;;;;;53.10;32.53;;;1.50;99.90;;;;;;5058666;28;20490;-68
2021/01/10 06:17:42;;;;;;;43.13;30.60;;;1.50;99.90;;;;;;5058916;28;20975;-68
2021/01/10 06:20:22;;;;;;;52.90;33.30;;;1.60;99.90;;;;;;5058519;28;20447;-68
2021/01/10 06:22:51;;;;;;;46.80;32.20;;;1.60;99.90;;;;;;5058852;28;20454;-68
2021/01/10 06:25:21;;;;;;;48.80;31.50;;;1.70;99.90;;;;;;5058620;28;20473;-68
2021/01/10 06:27:51;;;;;;;46.40;30.70;;;1.70;99.90;;;;;;5058850;28;20443;-68
2021/01/10 06:30:23;;;;;;;51.27;32.87;;;1.80;99.90;;;;;;5058784;28;20490;-68
2021/01/10 06:32:52;;;;;;;48.23;29.13;;;1.80;99.90;;;;;;5058913;28;20532;-68
2021/01/10 06:35:22;;;;;;;53.63;34.03;;;1.90;99.90;;;;;;5058534;28;20837;-68
2021/01/10 06:37:52;;;;;;;50.57;31.60;;;1.90;99.90;;;;;;5061421;28;20442;-68
2021/01/10 06:40:20;;;;;;;45.97;32.37;;;1.90;99.90;;;;;;5062343;28;20818;-68
2021/01/10 06:42:52;;;;;;;42.40;30.43;;;1.90;99.90;;;;;;5062260;28;20450;-68
2021/01/10 06:45:20;;;;;;;50.80;30.07;;;1.90;99.90;;;;;;5062336;28;20463;-68
2021/01/10 06:47:53;;;;;;;49.83;31.97;;;1.90;99.90;;;;;;5062720;28;20541;-68
2021/01/10 06:50:21;;;;;;;47.27;31.33;;;2.00;99.90;;;;;;5062700;28;20949;-68
2021/01/10 06:52:50;;;;;;;44.10;28.17;;;2.00;99.90;;;;;;5062803;28;20447;-67
2021/01/10 06:55:18;;;;;;;47.60;31.20;;;2.00;99.90;;;;;;5062646;28;20498;-68
2021/01/10 06:57:44;;;;;;;43.40;27.60;;;2.10;99.90;;;;;;5062330;28;21055;-69
2021/01/10 07:00:12;;;;;;;41.53;28.10;;;2.10;99.90;;;;;;5062074;28;20462;-68
2021/01/10 07:03:12;;;;;;;44.20;29.23;;;2.10;99.90;;;;;;5062326;28;20451;-68
2021/01/10 07:05:58;;;;;;;42.80;28.80;;;2.00;99.90;;;;;;5059354;28;20490;-69
2021/01/10 07:08:35;;;;;;;48.47;30.20;;;2.00;99.90;;;;;;5061859;28;20451;-69
2021/01/10 07:11:34;;;;;;;46.70;31.77;;;2.00;99.90;;;;;;5062019;28;20454;-70
2021/01/10 07:14:28;;;;;;;44.10;29.90;;;2.00;99.90;;;;;;5062256;28;20486;-69
2021/01/10 07:17:25;;;;;;;46.60;31.70;;;2.10;99.90;;;;;;5062380;28;20450;-68
2021/01/10 07:19:51;;;;;;;44.73;29.87;;;2.10;99.90;;;;;;4980159;28;20824;-69
2021/01/10 07:22:25;;;;;;;49.70;31.97;;;2.10;99.90;;;;;;5042695;28;20995;-69
2021/01/10 07:24:51;;;;;;;50.30;32.70;;;2.10;99.90;;;;;;5061814;28;20976;-67
2021/01/10 07:27:30;;;;;;;57.73;34.60;;;2.10;99.90;;;;;;5062098;28;20757;-68
2021/01/10 07:29:57;;;;;;;53.00;33.93;;;2.10;99.90;;;;;;5064742;28;20472;-67
2021/01/10 07:32:35;;;;;;;48.80;30.70;;;2.10;99.90;;;;;;5065274;28;20927;-68
2021/01/10 07:35:03;;;;;;;48.87;32.63;;;2.20;99.90;;;;;;5064762;28;20999;-68
2021/01/10 07:37:30;;;;;;;55.17;32.90;;;2.20;99.90;;;;;;5063904;28;20462;-69
2021/01/10 07:39:58;;;;;;;54.60;33.73;;;2.20;99.90;;;;;;5063489;28;20460;-68
2021/01/10 07:42:26;;;;;;;47.27;32.40;;;2.30;99.90;;;;;;5063068;28;20512;-66
2021/01/10 07:44:54;;;;;;;51.87;35.23;;;2.40;99.90;;;;;;5063603;28;20996;-68
2021/01/10 07:47:41;;;;;;;44.93;30.43;;;2.40;99.90;;;;;;5062787;28;20454;-68
2021/01/10 07:50:10;;;;;;;46.90;31.13;;;2.40;99.90;;;;;;5062813;28;20489;-68
2021/01/10 07:52:56;;;;;;;47.90;34.67;;;2.50;99.90;;;;;;5063114;28;20450;-69
2021/01/10 07:55:27;;;;;;;50.60;29.00;;;2.50;99.90;;;;;;5065103;28;20491;-68
2021/01/10 07:58:15;;;;;;;40.50;29.77;;;2.50;99.90;;;;;;5063718;28;20803;-68
2021/01/10 08:00:54;;;;;;;45.47;30.30;;;2.50;99.90;;;;;;5062500;28;20455;-67
2021/01/10 08:03:23;;;;;;;49.60;33.33;;;2.60;99.90;;;;;;5061825;28;20822;-68
2021/01/10 08:05:58;;;;;;;50.20;31.80;;;2.60;99.90;;;;;;5062693;28;20458;-68
2021/01/10 08:08:43;;;;;;;48.20;29.40;;;2.60;99.90;;;;;;5062444;28;20449;-67
2021/01/10 08:11:10;;;;;;;49.90;31.73;;;2.60;99.90;;;;;;5061375;28;20487;-67
2021/01/10 08:13:37;;;;;;;48.60;30.47;;;2.70;99.90;;;;;;5062846;28;20660;-68
2021/01/10 08:16:06;;;;;;;49.73;32.30;;;2.70;99.90;;;;;;5063714;28;20458;-68
2021/01/10 08:18:34;;;;;;;42.33;28.67;;;2.70;99.90;;;;;;5061172;28;20447;-69
2021/01/10 08:21:02;;;;;;;46.13;31.60;;;2.70;99.90;;;;;;5060709;28;20943;-68
2021/01/10 08:23:31;;;;;;;45.00;29.23;;;2.80;99.90;;;;;;5060563;28;20923;-68
2021/01/10 08:26:06;;;;;;;46.50;28.97;;;2.80;99.90;;;;;;5060289;28;20455;-69
2021/01/10 08:28:34;;;;;;;42.37;29.40;;;2.80;99.90;;;;;;5065020;28;21081;-68
2021/01/10 08:31:03;;;;;;;44.13;30.20;;;2.70;99.90;;;;;;5064676;28;20447;-69
2021/01/10 08:33:31;;;;;;;43.87;29.47;;;2.80;99.90;;;;;;5065953;28;20732;-68
2021/01/10 08:36:16;;;;;;;44.43;28.37;;;2.90;99.90;;;;;;5072389;28;20569;-67
2021/01/10 08:38:50;;;;;;;45.20;30.23;;;2.90;99.90;;;;;;5068822;28;20471;-68
2021/01/10 08:41:28;;;;;;;40.53;26.47;;;3.00;99.90;;;;;;5060895;28;20769;-68
2021/01/10 08:43:56;;;;;;;39.57;27.10;;;3.00;99.90;;;;;;5069097;28;20502;-70
2021/01/10 08:46:23;;;;;;;41.13;24.87;;;3.10;99.90;;;;;;5061186;28;20447;-69
2021/01/10 08:48:50;;;;;;;36.57;26.83;;;3.20;99.90;;;;;;5062989;28;20447;-70
2021/01/10 08:51:34;;;;;;;33.33;26.47;;;3.10;99.90;;;;;;5059996;28;21006;-69
2021/01/10 08:54:01;;;;;;;32.87;26.10;;;3.20;99.90;;;;;;5060005;28;20487;-69
2021/01/10 08:56:27;;;;;;;38.07;25.20;;;3.20;99.90;;;;;;5061513;28;20452;-71
2021/01/10 08:58:54;;;;;;;36.70;25.70;;;3.20;99.90;;;;;;5059490;28;20482;-70
2021/01/10 09:01:22;;;;;;;32.97;25.33;;;3.30;99.90;;;;;;5059923;28;20948;-71
2021/01/10 09:04:00;;;;;;;36.70;25.93;;;3.40;99.90;;;;;;5060110;28;20479;-69
2021/01/10 09:06:53;;;;;;;36.90;26.37;;;3.40;99.90;;;;;;5061028;28;20454;-69
2021/01/10 09:09:25;;;;;;;33.03;23.77;;;3.50;99.90;;;;;;5060441;28;20451;-69
2021/01/10 09:12:01;;;;;;;34.67;25.77;;;3.60;99.90;;;;;;5059724;28;20809;-70
2021/01/10 09:14:32;;;;;;;35.23;25.70;;;3.70;99.90;;;;;;5059182;28;20486;-69
2021/01/10 09:17:00;;;;;;;38.00;24.50;;;3.90;99.90;;;;;;5059625;28;20444;-69
2021/01/10 09:19:30;;;;;;;34.30;25.90;;;3.80;99.90;;;;;;5059498;28;20453;-70
2021/01/10 09:21:56;;;;;;;34.13;27.53;;;3.90;99.90;;;;;;5059349;28;20447;-70
2021/01/10 09:24:31;;;;;;;37.17;24.90;;;3.90;99.90;;;;;;5059379;28;20473;-71
2021/01/10 09:27:08;;;;;;;36.13;25.30;;;4.00;99.90;;;;;;5059550;28;20931;-69
2021/01/10 09:29:34;;;;;;;33.07;24.60;;;4.00;99.90;;;;;;5059389;28;20446;-68
2021/01/10 09:32:02;;;;;;;34.70;26.67;;;4.10;99.90;;;;;;5059331;28;20451;-70
2021/01/10 09:34:29;;;;;;;48.20;26.57;;;4.10;99.90;;;;;;5063784;28;20541;-68
2021/01/10 09:37:03;;;;;;;28.27;24.40;;;4.20;99.90;;;;;;5065630;28;20458;-69
2021/01/10 09:39:40;;;;;;;33.40;23.90;;;4.30;99.90;;;;;;5066691;28;20912;-69
2021/01/10 09:42:06;;;;;;;31.23;23.80;;;4.30;99.90;;;;;;5071704;28;20455;-69
2021/01/10 09:44:33;;;;;;;31.27;23.30;;;4.40;99.90;;;;;;5076667;28;20532;-66
2021/01/10 09:47:00;;;;;;;34.67;26.87;;;4.50;99.90;;;;;;5083804;28;20423;-65
2021/01/10 09:49:32;;;;;;;35.63;29.63;;;4.50;99.90;;;;;;5077464;28;20428;-66
2021/01/10 09:52:00;;;;;;;40.97;28.37;;;4.60;99.90;;;;;;5075953;28;20431;-68
2021/01/10 09:54:29;;;;;;;38.07;26.47;;;4.70;99.90;;;;;;5076417;28;21408;-65
2021/01/10 09:56:56;;;;;;;40.43;26.23;;;4.70;99.90;;;;;;5064474;28;20527;-69
2021/01/10 09:59:33;;;;;;;41.10;29.73;;;4.70;99.90;;;;;;5061475;28;20458;-69
2021/01/10 10:02:00;;;;;;;42.73;27.03;;;4.80;99.90;;;;;;5059506;28;20946;-70
2021/01/10 10:04:27;;;;;;;32.17;26.57;;;4.90;99.90;;;;;;5059287;28;20978;-69
2021/01/10 10:06:54;;;;;;;40.37;27.70;;;4.90;99.90;;;;;;5059411;28;20466;-69
2021/01/10 10:09:21;;;;;;;39.77;28.43;;;5.00;99.90;;;;;;5059600;28;20447;-70
2021/01/10 10:11:49;;;;;;;49.37;29.97;;;5.10;99.90;;;;;;5063448;28;20454;-69
2021/01/10 10:14:15;;;;;;;37.23;27.07;;;5.10;99.90;;;;;;5068591;28;21095;-69
2021/01/10 10:16:42;;;;;;;37.60;28.93;;;5.10;99.90;;;;;;5065568;28;20925;-70
2021/01/10 10:19:08;;;;;;;38.97;27.13;;;5.20;99.90;;;;;;5065086;28;20446;-70
2021/01/10 10:21:34;;;;;;;38.80;28.93;;;5.20;99.90;;;;;;5064337;28;20447;-69
2021/01/10 10:24:02;;;;;;;34.70;27.40;;;5.30;99.90;;;;;;5063281;28;20509;-68
2021/01/10 10:26:28;;;;;;;37.20;29.30;;;5.30;99.90;;;;;;5069562;28;20451;-70
2021/01/10 10:28:54;;;;;;;35.40;27.70;;;5.40;99.90;;;;;;5070753;28;20795;-69
2021/01/10 10:31:24;;;;;;;37.57;28.23;;;5.40;99.90;;;;;;5067979;28;21070;-70
2021/01/10 10:33:50;;;;;;;35.23;29.33;;;5.50;99.90;;;;;;5067416;28;21004;-69
2021/01/10 10:36:20;;;;;;;40.80;29.73;;;5.50;99.90;;;;;;5063947;28;21020;-71
2021/01/10 10:38:46;;;;;;;32.20;25.60;;;5.60;99.90;;;;;;5065861;28;20455;-68
2021/01/10 10:41:14;;;;;;;38.60;29.57;;;5.60;99.90;;;;;;5069137;28;20518;-68
2021/01/10 10:43:40;;;;;;;38.40;27.77;;;5.60;99.90;;;;;;5066947;28;20475;-70
2021/01/10 10:46:06;;;;;;;33.40;27.13;;;5.60;99.90;;;;;;5070338;28;20456;-70
2021/01/10 10:48:33;;;;;;;38.13;28.63;;;5.80;99.90;;;;;;5064639;28;20528;-69
2021/01/10 10:50:59;;;;;;;31.20;27.23;;;5.90;99.90;;;;;;5062031;28;20451;-69
2021/01/10 10:53:26;;;;;;;34.33;28.33;;;6.00;99.90;;;;;;5062125;28;20447;-68
2021/01/10 10:55:52;;;;;;;32.97;27.80;;;5.90;99.90;;;;;;5062372;28;20493;-68
2021/01/10 10:58:19;;;;;;;31.70;27.57;;;5.80;99.90;;;;;;5062366;28;20451;-69
2021/01/10 11:00:46;;;;;;;31.50;28.10;;;5.90;99.90;;;;;;5061821;28;20883;-68
2021/01/10 11:03:12;;;;;;;29.50;25.77;;;6.00;99.90;;;;;;5062054;28;20447;-69
2021/01/10 11:05:38;;;;;;;33.47;28.03;;;6.10;99.90;;;;;;5062625;28;20459;-68
2021/01/10 11:08:05;;;;;;;27.33;24.57;;;6.10;99.90;;;;;;5061587;28;20447;-69
2021/01/10 11:10:31;;;;;;;29.27;26.37;;;6.20;99.90;;;;;;5061478;28;20450;-68
2021/01/10 11:12:57;;;;;;;29.30;26.27;;;6.20;99.90;;;;;;5061731;28;20443;-68
2021/01/10 11:15:25;;;;;;;26.30;23.57;;;6.10;99.90;;;;;;5061394;28;20483;-67
2021/01/10 11:17:52;;;;;;;31.27;28.07;;;6.20;99.90;;;;;;5061439;28;20451;-68
2021/01/10 11:20:19;;;;;;;31.97;28.57;;;6.20;99.90;;;;;;5060641;28;20451;-68
2021/01/10 11:22:45;;;;;;;29.97;26.97;;;6.10;99.90;;;;;;5060665;28;20504;-68
2021/01/10 11:25:12;;;;;;;30.47;27.30;;;6.30;99.90;;;;;;5061227;28;20533;-69
2021/01/10 11:27:38;;;;;;;29.93;26.60;;;6.40;99.90;;;;;;5061519;28;20451;-69
2021/01/10 11:30:06;;;;;;;32.80;26.10;;;6.50;99.90;;;;;;5061036;28;20447;-70
2021/01/10 11:32:34;;;;;;;30.80;27.50;;;6.50;99.90;;;;;;5061365;28;20451;-70
2021/01/10 11:35:01;;;;;;;32.47;29.10;;;6.60;99.90;;;;;;5060904;28;20544;-70
2021/01/10 11:37:28;;;;;;;31.10;28.20;;;6.70;99.90;;;;;;5061060;28;20451;-68
2021/01/10 11:39:54;;;;;;;29.97;26.97;;;6.80;99.90;;;;;;5060918;28;20449;-71
2021/01/10 11:42:20;;;;;;;33.40;29.90;;;7.00;99.90;;;;;;5060951;28;20447;-69
2021/01/10 11:44:47;;;;;;;28.57;25.87;;;7.10;99.90;;;;;;5060692;28;20884;-69
2021/01/10 11:47:13;;;;;;;30.87;27.73;;;7.00;99.90;;;;;;5060974;28;20451;-70
2021/01/10 11:49:40;;;;;;;29.00;26.13;;;7.00;99.90;;;;;;5060589;28;20447;-70
2021/01/10 11:52:06;;;;;;;28.73;25.90;;;7.00;99.90;;;;;;5061056;28;20816;-68
2021/01/10 11:54:32;;;;;;;30.97;27.23;;;7.00;99.90;;;;;;5060626;28;20506;-68
2021/01/10 11:56:59;;;;;;;30.90;27.13;;;7.10;99.90;;;;;;5060765;28;20454;-69
2021/01/10 11:59:25;;;;;;;31.33;28.00;;;7.30;99.90;;;;;;5060796;28;20497;-70
2021/01/10 12:01:51;;;;;;;32.47;29.07;;;7.40;99.90;;;;;;5060452;28;20454;-71
2021/01/10 12:04:17;;;;;;;30.87;27.67;;;7.50;99.90;;;;;;5060518;28;20498;-70
2021/01/10 12:06:44;;;;;;;29.97;26.97;;;7.70;99.90;;;;;;5060565;28;20455;-71
2021/01/10 12:09:13;;;;;;;33.93;26.93;;;7.80;99.90;;;;;;5060527;28;20870;-71
2021/01/10 12:11:40;;;;;;;30.67;27.80;;;7.90;99.90;;;;;;5059982;28;20539;-67
2021/01/10 12:14:07;;;;;;;32.00;28.63;;;7.90;99.90;;;;;;5060263;28;20829;-69
2021/01/10 12:16:35;;;;;;;32.10;28.80;;;7.90;99.90;;;;;;5060182;28;20451;-71
2021/01/10 12:19:03;;;;;;;30.73;27.77;;;8.10;99.90;;;;;;5060031;28;20455;-68
2021/01/10 12:21:29;;;;;;;32.70;29.50;;;8.30;99.90;;;;;;5059962;28;21032;-70
2021/01/10 12:23:56;;;;;;;30.60;27.80;;;8.50;99.90;;;;;;5060213;28;20463;-71
2021/01/10 12:26:22;;;;;;;31.40;28.50;;;8.70;99.90;;;;;;5060004;28;20443;-71
2021/01/10 12:28:49;;;;;;;31.23;28.50;;;8.70;99.90;;;;;;5059932;28;20458;-71
2021/01/10 12:31:18;;;;;;;30.90;28.00;;;8.70;99.90;;;;;;5059402;28;20787;-68
2021/01/10 12:33:44;;;;;;;32.20;29.03;;;9.00;99.90;;;;;;5059050;28;20264;-69
2021/01/10 12:36:11;;;;;;;31.80;28.80;;;9.20;99.90;;;;;;5059641;28;20573;-69
2021/01/10 12:38:39;;;;;;;33.47;26.93;;;9.50;99.90;;;;;;5059824;28;20902;-69
2021/01/10 12:41:08;;;;;;;29.00;26.60;;;9.70;99.10;;;;;;5059697;28;20497;-69
2021/01/10 12:43:34;;;;;;;30.27;27.57;;;11.00;96.80;;;;;;5059943;28;20467;-69